Time;durP1;ratioP1;P1;durP2;ratioP2;P2;SDS_P1;SDS_P2;PMS_P1;PMS_P2;Temp;Humidity;BMP_temperature;BMP_pressure;BME280_temperature;BME280_humidity;BME280_pressure;Samples;Min_cycle;Max_cycle;Signal;HPM_P1;HPM_P2
2023/06/18 00:01:26;;;;;;;;;;;;;;;28.70;47.18;101175.69;5138345;27;19920;-66
2023/06/18 00:03:53;;;;;;;;;;;;;;;28.69;47.89;101174.91;5140409;27;19927;-65
2023/06/18 00:06:18;;;;;;;;;;;;;;;28.68;48.44;101181.53;5138247;27;19916;-65
2023/06/18 00:08:44;;;;;;;;;;;;;;;28.68;48.81;101173.28;5140351;27;19915;-65
2023/06/18 00:11:09;;;;;;;;;;;;;;;28.53;49.46;101173.63;5140632;27;19916;-66
2023/06/18 00:13:34;;;;;;;;;;;;;;;28.55;50.20;101176.88;5141605;27;19939;-65
2023/06/18 00:16:00;;;;;;;;;;;;;;;28.49;51.69;101181.69;5138068;27;19959;-69
2023/06/18 00:18:25;;;;;;;;;;;;;;;28.52;53.37;101177.50;5145390;27;19923;-65
2023/06/18 00:20:50;;;;;;;;;;;;;;;28.57;54.00;101180.13;5145203;27;19919;-66
2023/06/18 00:23:16;;;;;;;;;;;;;;;28.50;55.28;101177.00;5142597;27;19931;-65
2023/06/18 00:25:42;;;;;;;;;;;;;;;28.52;56.36;101172.81;5147122;27;19927;-65
2023/06/18 00:28:07;;;;;;;;;;;;;;;28.41;57.82;101172.25;5146221;27;19996;-65
2023/06/18 00:30:32;;;;;;;;;;;;;;;28.42;58.93;101168.38;5139575;27;19923;-65
2023/06/18 00:32:59;;;;;;;;;;;;;;;28.43;59.67;101169.16;5136944;27;19915;-65
2023/06/18 00:35:25;;;;;;;;;;;;;;;28.29;60.56;101171.94;5140340;27;19915;-66
2023/06/18 00:37:50;;;;;;;;;;;;;;;28.26;62.23;101173.41;5136739;27;20003;-67
2023/06/18 00:40:16;;;;;;;;;;;;;;;28.75;60.84;101170.91;5139043;27;19915;-68
2023/06/18 00:42:42;;;;;;;;;;;;;;;29.00;59.72;101165.13;5137785;27;19969;-68
2023/06/18 00:45:12;;;;;;;;;;;;;;;28.96;59.87;101170.44;5139126;27;19941;-67
2023/06/18 00:47:40;;;;;;;;;;;;;;;28.83;61.31;101163.03;5138127;27;19927;-67
2023/06/18 00:50:05;;;;;;;;;;;;;;;28.90;60.92;101166.19;5138464;27;19916;-67
2023/06/18 00:52:33;;;;;;;;;;;;;;;28.85;61.46;101169.06;5136659;28;19965;-67
2023/06/18 00:54:58;;;;;;;;;;;;;;;28.99;61.01;101163.50;5136200;27;19919;-68
2023/06/18 00:57:24;;;;;;;;;;;;;;;28.94;61.05;101161.69;5141138;27;19945;-67
2023/06/18 00:59:51;;;;;;;;;;;;;;;28.57;63.28;101158.13;5139884;27;19920;-68
2023/06/18 01:02:23;;;;;;;;;;;;;;;28.56;64.03;101157.31;5146100;27;19940;-67
2023/06/18 01:04:56;;;;;;;;;;;;;;;28.61;64.39;101151.69;5143739;27;19920;-67
2023/06/18 01:07:22;;;;;;;;;;;;;;;28.55;64.62;101155.69;5139901;27;19916;-68
2023/06/18 01:09:54;;;;;;;;;;;;;;;28.48;65.32;101158.88;5142181;27;19972;-68
2023/06/18 01:12:27;;;;;;;;;;;;;;;28.54;65.50;101154.06;5144604;27;20357;-67
2023/06/18 01:14:56;;;;;;;;;;;;;;;28.43;66.12;101153.50;5147154;27;19916;-67
2023/06/18 01:17:23;;;;;;;;;;;;;;;28.37;66.59;101153.91;5145382;27;19915;-68
2023/06/18 01:19:57;;;;;;;;;;;;;;;28.23;67.38;101151.19;5130725;27;19916;-67
2023/06/18 01:22:28;;;;;;;;;;;;;;;28.18;67.52;101141.94;5144862;27;19939;-67
2023/06/18 01:24:55;;;;;;;;;;;;;;;28.24;67.18;101150.06;5143646;27;19983;-67
2023/06/18 01:27:23;;;;;;;;;;;;;;;28.41;66.75;101149.41;5145114;27;19916;-68
2023/06/18 01:29:53;;;;;;;;;;;;;;;28.31;67.06;101137.53;5144500;27;19943;-67
2023/06/18 01:32:19;;;;;;;;;;;;;;;28.21;67.69;101142.44;5143516;27;19926;-67
2023/06/18 01:34:45;;;;;;;;;;;;;;;28.10;68.74;101141.81;5144731;27;19926;-68
2023/06/18 01:37:10;;;;;;;;;;;;;;;28.21;68.04;101139.69;5145442;27;19947;-67
2023/06/18 01:39:44;;;;;;;;;;;;;;;28.07;68.54;101139.69;5145093;27;19919;-68
2023/06/18 01:42:13;;;;;;;;;;;;;;;27.87;69.61;101137.03;5141394;27;19971;-67
2023/06/18 01:44:42;;;;;;;;;;;;;;;27.92;68.94;101133.38;5141767;27;19931;-67
2023/06/18 01:47:09;;;;;;;;;;;;;;;27.70;70.16;101137.66;5140757;27;19923;-68
2023/06/18 01:49:36;;;;;;;;;;;;;;;27.75;69.97;101134.81;5145313;27;19920;-68
2023/06/18 01:52:02;;;;;;;;;;;;;;;27.65;70.12;101137.75;5139695;27;19923;-67
2023/06/18 01:54:28;;;;;;;;;;;;;;;27.64;70.05;101130.66;5144080;27;19919;-68
2023/06/18 01:56:54;;;;;;;;;;;;;;;27.54;70.87;101137.16;5143935;27;19924;-67
2023/06/18 01:59:20;;;;;;;;;;;;;;;27.50;71.48;101130.59;5142870;27;19961;-67
2023/06/18 02:01:46;;;;;;;;;;;;;;;27.41;72.56;101138.72;5143096;27;19916;-67
2023/06/18 02:04:11;;;;;;;;;;;;;;;27.38;72.78;101142.09;5140506;27;19959;-68
2023/06/18 02:06:36;;;;;;;;;;;;;;;27.44;73.38;101129.88;5142651;27;19919;-68
2023/06/18 02:09:03;;;;;;;;;;;;;;;27.41;74.20;101130.50;5141847;27;19916;-67
2023/06/18 02:11:29;;;;;;;;;;;;;;;27.30;74.64;101129.03;5141112;27;19920;-66
2023/06/18 02:13:54;;;;;;;;;;;;;;;27.28;75.50;101125.78;5141850;27;19947;-68
2023/06/18 02:16:20;;;;;;;;;;;;;;;27.20;76.20;101114.41;5141531;27;19960;-69
2023/06/18 02:18:45;;;;;;;;;;;;;;;27.05;77.33;101122.88;5142643;27;19969;-67
2023/06/18 02:21:11;;;;;;;;;;;;;;;26.96;78.63;101119.22;5143928;27;19947;-69
2023/06/18 02:23:36;;;;;;;;;;;;;;;27.11;77.56;101116.22;5141335;27;19927;-69
2023/06/18 02:26:03;;;;;;;;;;;;;;;27.06;77.85;101113.53;5143204;27;19930;-68
2023/06/18 02:28:29;;;;;;;;;;;;;;;26.93;78.79;101117.88;5146769;27;19915;-68
2023/06/18 02:30:55;;;;;;;;;;;;;;;27.00;78.93;101115.56;5146262;27;19944;-67
2023/06/18 02:33:22;;;;;;;;;;;;;;;27.04;79.38;101126.75;5146739;27;19945;-68
2023/06/18 02:35:48;;;;;;;;;;;;;;;26.76;81.41;101111.00;5144692;27;19915;-68
2023/06/18 02:38:14;;;;;;;;;;;;;;;26.87;80.91;101114.44;5138264;27;19949;-67
2023/06/18 02:40:39;;;;;;;;;;;;;;;26.95;80.88;101109.34;5139684;27;19915;-67
2023/06/18 02:43:05;;;;;;;;;;;;;;;26.81;82.52;101117.50;5138157;27;19919;-69
2023/06/18 02:45:31;;;;;;;;;;;;;;;26.90;82.36;101111.06;5134179;28;19916;-67
2023/06/18 02:47:56;;;;;;;;;;;;;;;26.83;84.13;101104.31;5137262;27;19919;-69
2023/06/18 02:50:22;;;;;;;;;;;;;;;26.83;84.62;101101.56;5136619;27;19922;-67
2023/06/18 02:52:48;;;;;;;;;;;;;;;26.84;84.74;101100.44;5142307;27;19937;-68
2023/06/18 02:55:14;;;;;;;;;;;;;;;26.77;86.11;101107.16;5138115;27;19967;-68
2023/06/18 02:57:40;;;;;;;;;;;;;;;26.78;87.00;101099.72;5144886;27;19916;-68
2023/06/18 03:00:10;;;;;;;;;;;;;;;26.57;88.96;101100.03;5142131;27;19915;-67
2023/06/18 03:02:36;;;;;;;;;;;;;;;26.57;88.17;101097.28;5140490;27;19915;-69
2023/06/18 03:05:04;;;;;;;;;;;;;;;26.64;86.06;101107.88;5142802;27;19927;-68
2023/06/18 03:07:31;;;;;;;;;;;;;;;26.42;85.50;101095.59;5142922;27;19916;-67
2023/06/18 03:09:57;;;;;;;;;;;;;;;26.48;84.84;101099.09;5142817;27;19974;-67
2023/06/18 03:12:22;;;;;;;;;;;;;;;26.51;83.88;101095.75;5139028;27;19920;-68
2023/06/18 03:14:50;;;;;;;;;;;;;;;26.29;84.93;101099.91;5139320;27;19938;-67
2023/06/18 03:17:17;;;;;;;;;;;;;;;26.08;87.11;101098.53;5141661;27;19987;-67
2023/06/18 03:19:43;;;;;;;;;;;;;;;26.13;86.71;101096.53;5142064;27;19916;-67
2023/06/18 03:22:08;;;;;;;;;;;;;;;26.22;86.10;101095.91;5141843;27;19912;-68
2023/06/18 03:24:38;;;;;;;;;;;;;;;26.25;85.07;101095.31;5141713;27;19919;-67
2023/06/18 03:27:04;;;;;;;;;;;;;;;26.15;84.97;101097.06;5142081;27;19917;-69
2023/06/18 03:29:34;;;;;;;;;;;;;;;26.27;83.71;101101.28;5141271;27;19915;-67
2023/06/18 03:32:02;;;;;;;;;;;;;;;26.29;83.19;101102.66;5143903;27;19927;-68
2023/06/18 03:34:31;;;;;;;;;;;;;;;26.25;83.70;101096.13;5142833;27;19918;-67
2023/06/18 03:37:00;;;;;;;;;;;;;;;26.25;83.86;101098.03;5141023;27;19987;-68
2023/06/18 03:39:26;;;;;;;;;;;;;;;26.23;83.40;101100.25;5143443;27;19920;-67
2023/06/18 03:41:51;;;;;;;;;;;;;;;26.07;84.02;101103.19;5144068;28;19919;-67
2023/06/18 03:44:17;;;;;;;;;;;;;;;26.20;83.10;101098.94;5141498;27;19920;-66
2023/06/18 03:46:43;;;;;;;;;;;;;;;26.14;83.20;101100.91;5129113;28;19927;-67
2023/06/18 03:49:09;;;;;;;;;;;;;;;26.13;83.89;101107.50;5143881;28;19915;-67
2023/06/18 03:51:34;;;;;;;;;;;;;;;26.12;84.10;101116.84;5140897;28;19927;-67
2023/06/18 03:54:00;;;;;;;;;;;;;;;26.20;83.64;101116.19;5145323;27;19920;-68
2023/06/18 03:56:26;;;;;;;;;;;;;;;26.15;84.22;101116.25;5140261;28;19919;-67
2023/06/18 03:58:54;;;;;;;;;;;;;;;26.12;84.60;101113.25;5140618;28;19915;-68
2023/06/18 04:01:19;;;;;;;;;;;;;;;26.23;83.43;101105.75;5139434;28;19949;-67
2023/06/18 04:03:45;;;;;;;;;;;;;;;26.36;81.15;101112.41;5127304;28;19970;-67
2023/06/18 04:06:11;;;;;;;;;;;;;;;26.40;80.75;101113.44;5142747;28;19916;-67
2023/06/18 04:08:36;;;;;;;;;;;;;;;26.37;82.12;101117.63;5143873;28;19931;-67
2023/06/18 04:11:02;;;;;;;;;;;;;;;26.40;82.56;101117.03;5141568;28;19931;-68
2023/06/18 04:13:28;;;;;;;;;;;;;;;26.51;80.98;101119.59;5143657;28;19923;-68
2023/06/18 04:15:54;;;;;;;;;;;;;;;26.28;82.29;101128.44;5142029;28;19916;-68
2023/06/18 04:18:20;;;;;;;;;;;;;;;26.28;81.80;101122.94;5137440;28;19947;-67
2023/06/18 04:20:46;;;;;;;;;;;;;;;26.19;81.96;101130.22;5141565;28;19915;-68
2023/06/18 04:23:14;;;;;;;;;;;;;;;26.31;80.76;101129.78;5138622;28;19935;-68
2023/06/18 04:25:39;;;;;;;;;;;;;;;26.26;81.63;101121.59;5137924;28;19919;-67
2023/06/18 04:28:05;;;;;;;;;;;;;;;26.20;82.70;101120.88;5138740;28;19923;-67
2023/06/18 04:30:31;;;;;;;;;;;;;;;26.22;82.37;101134.28;5135364;28;19927;-67
2023/06/18 04:32:57;;;;;;;;;;;;;;;26.32;81.08;101136.88;5140084;28;19945;-67
2023/06/18 04:35:23;;;;;;;;;;;;;;;26.25;82.10;101139.16;5139857;28;19916;-68
2023/06/18 04:37:49;;;;;;;;;;;;;;;26.19;83.15;101131.00;5139993;28;19920;-67
2023/06/18 04:40:15;;;;;;;;;;;;;;;26.18;83.10;101136.78;5140454;27;19923;-68
2023/06/18 04:42:42;;;;;;;;;;;;;;;26.26;83.16;101129.81;5146309;27;19927;-67
2023/06/18 04:45:12;;;;;;;;;;;;;;;26.17;83.52;101137.88;5140271;27;19920;-68
2023/06/18 04:47:37;;;;;;;;;;;;;;;26.17;83.95;101137.88;5145624;27;19991;-67
2023/06/18 04:50:05;;;;;;;;;;;;;;;26.06;85.47;101138.00;5140104;27;19916;-69
2023/06/18 04:52:34;;;;;;;;;;;;;;;26.10;84.96;101127.28;5130846;27;19915;-67
2023/06/18 04:55:00;;;;;;;;;;;;;;;26.09;85.38;101133.03;5144947;27;20017;-67
2023/06/18 04:57:27;;;;;;;;;;;;;;;26.01;85.70;101126.28;5147130;27;19947;-67
2023/06/18 04:59:54;;;;;;;;;;;;;;;26.14;84.66;101128.31;5143616;27;19937;-67
2023/06/18 05:02:20;;;;;;;;;;;;;;;26.12;85.78;101133.28;5141891;27;19920;-68
2023/06/18 05:04:46;;;;;;;;;;;;;;;26.12;86.37;101133.28;5142257;27;19983;-67
2023/06/18 05:07:12;;;;;;;;;;;;;;;26.03;86.13;101126.78;5141193;27;19991;-67
2023/06/18 05:09:40;;;;;;;;;;;;;;;26.17;86.04;101126.91;5140745;27;19916;-67
2023/06/18 05:12:07;;;;;;;;;;;;;;;26.20;85.75;101127.16;5142407;27;19924;-69
2023/06/18 05:14:33;;;;;;;;;;;;;;;26.18;85.08;101126.63;5140048;27;19915;-68
2023/06/18 05:16:59;;;;;;;;;;;;;;;26.27;84.24;101121.31;5143564;27;19916;-68
2023/06/18 05:19:25;;;;;;;;;;;;;;;26.34;83.36;101115.47;5144701;27;19915;-68
2023/06/18 05:21:50;;;;;;;;;;;;;;;26.29;83.07;101123.75;5145997;27;19916;-68
2023/06/18 05:24:18;;;;;;;;;;;;;;;26.37;82.32;101119.53;5138623;27;19920;-68
2023/06/18 05:26:44;;;;;;;;;;;;;;;26.26;83.36;101125.16;5146039;27;19926;-68
2023/06/18 05:29:10;;;;;;;;;;;;;;;26.45;82.35;101130.66;5145530;27;19970;-68
2023/06/18 05:31:36;;;;;;;;;;;;;;;26.55;80.75;101131.63;5144465;27;19918;-67
2023/06/18 05:34:05;;;;;;;;;;;;;;;26.62;79.70;101134.81;5142492;27;19917;-68
2023/06/18 05:36:31;;;;;;;;;;;;;;;26.88;77.45;101134.44;5147054;27;19945;-67
2023/06/18 05:39:01;;;;;;;;;;;;;;;26.68;76.58;101136.34;5140671;27;19919;-67
2023/06/18 05:41:29;;;;;;;;;;;;;;;26.80;76.04;101138.63;5143749;27;19923;-68
2023/06/18 05:43:55;;;;;;;;;;;;;;;26.85;75.72;101144.06;5144900;27;19919;-67
2023/06/18 05:46:20;;;;;;;;;;;;;;;27.06;74.58;101146.47;5139415;27;19922;-69
2023/06/18 05:48:47;;;;;;;;;;;;;;;27.12;73.99;101147.22;5140731;27;19930;-68
2023/06/18 05:51:17;;;;;;;;;;;;;;;27.14;74.00;101148.53;5140859;27;19926;-66
2023/06/18 05:53:43;;;;;;;;;;;;;;;27.31;72.75;101147.97;5143959;27;19915;-67
2023/06/18 05:56:10;;;;;;;;;;;;;;;27.29;72.62;101146.63;5143365;27;19916;-67
2023/06/18 05:58:36;;;;;;;;;;;;;;;27.45;71.37;101142.50;5143449;27;19916;-67
2023/06/18 06:01:02;;;;;;;;;;;;;;;27.65;69.71;101147.94;5142700;27;19926;-67
2023/06/18 06:03:27;;;;;;;;;;;;;;;27.76;68.52;101149.38;5144146;27;19919;-67
2023/06/18 06:05:53;;;;;;;;;;;;;;;27.83;66.85;101148.97;5142448;27;19923;-68
2023/06/18 06:08:19;;;;;;;;;;;;;;;27.99;66.26;101147.50;5142908;27;19919;-67
2023/06/18 06:10:52;;;;;;;;;;;;;;;27.84;66.06;101145.09;5138081;27;19899;-68
2023/06/18 06:13:19;;;;;;;;;;;;;;;27.97;65.69;101151.72;5139004;27;19919;-68
2023/06/18 06:15:46;;;;;;;;;;;;;;;28.13;65.18;101146.69;5140640;27;19916;-68
2023/06/18 06:18:12;;;;;;;;;;;;;;;27.92;65.65;101149.88;5145537;27;19975;-67
2023/06/18 06:20:38;;;;;;;;;;;;;;;28.07;65.88;101153.44;5127342;27;19943;-67
2023/06/18 06:23:04;;;;;;;;;;;;;;;28.00;65.93;101156.59;5142966;27;19922;-68
2023/06/18 06:25:30;;;;;;;;;;;;;;;28.27;65.76;101152.19;5145345;27;19920;-69
2023/06/18 06:27:57;;;;;;;;;;;;;;;28.32;65.19;101152.06;5146333;27;19915;-68
2023/06/18 06:30:23;;;;;;;;;;;;;;;28.47;64.42;101153.66;5142409;27;19987;-67
2023/06/18 06:32:54;;;;;;;;;;;;;;;28.50;64.77;101152.25;5129932;27;19915;-68
2023/06/18 06:35:20;;;;;;;;;;;;;;;28.82;62.85;101155.91;5143297;27;19946;-67
2023/06/18 06:37:46;;;;;;;;;;;;;;;28.95;62.75;101149.53;5145461;27;19915;-68
2023/06/18 06:40:13;;;;;;;;;;;;;;;28.77;61.85;101171.41;5144020;27;19958;-68
2023/06/18 06:42:40;;;;;;;;;;;;;;;28.73;60.80;101167.66;5138115;27;19915;-67
2023/06/18 06:45:35;;;;;;;;;;;;;;;28.62;61.21;101156.06;5139981;27;19942;-68
2023/06/18 06:48:05;;;;;;;;;;;;;;;28.45;60.75;101161.41;5145118;27;20007;-68
2023/06/18 06:50:37;;;;;;;;;;;;;;;28.64;60.80;101158.53;5142371;27;19919;-68
2023/06/18 06:53:41;;;;;;;;;;;;;;;28.85;59.40;101163.56;5136954;27;19926;-67
2023/06/18 06:56:08;;;;;;;;;;;;;;;28.80;57.94;101169.19;5128127;27;19986;-67
2023/06/18 06:58:33;;;;;;;;;;;;;;;28.49;57.04;101167.94;5127129;27;19922;-66
2023/06/18 07:00:59;;;;;;;;;;;;;;;28.62;54.42;101169.81;5143067;27;19915;-68
2023/06/18 07:03:25;;;;;;;;;;;;;;;28.90;52.84;101177.19;5144249;27;19955;-69
2023/06/18 07:05:50;;;;;;;;;;;;;;;28.93;52.99;101181.25;5144529;27;20368;-68
2023/06/18 07:08:16;;;;;;;;;;;;;;;28.74;51.42;101191.28;5143455;27;19915;-68
2023/06/18 07:10:41;;;;;;;;;;;;;;;28.53;52.13;101207.47;5142729;27;19923;-68
2023/06/18 07:13:07;;;;;;;;;;;;;;;28.10;55.01;101225.09;5142045;27;19919;-67
2023/06/18 07:15:32;;;;;;;;;;;;;;;27.92;55.46;101210.31;5143547;27;19944;-67
2023/06/18 07:17:58;;;;;;;;;;;;;;;28.28;55.45;101203.31;5140368;27;19927;-66
2023/06/18 07:20:24;;;;;;;;;;;;;;;28.59;54.64;101188.88;5143720;27;19974;-66
2023/06/18 07:22:49;;;;;;;;;;;;;;;28.33;55.12;101209.53;5142832;27;19939;-65
2023/06/18 07:25:14;;;;;;;;;;;;;;;27.97;56.47;101206.69;5143466;27;19919;-67
2023/06/18 07:27:40;;;;;;;;;;;;;;;28.46;55.05;101196.88;5142141;27;19988;-67
2023/06/18 07:30:05;;;;;;;;;;;;;;;28.97;54.30;101196.84;5142488;27;19937;-66
2023/06/18 07:32:31;;;;;;;;;;;;;;;28.55;54.34;101198.88;5141917;27;19916;-68
2023/06/18 07:34:56;;;;;;;;;;;;;;;28.66;54.88;101197.53;5141842;27;19947;-69
2023/06/18 07:37:22;;;;;;;;;;;;;;;28.66;54.24;101205.78;5141236;27;19923;-68
2023/06/18 07:39:49;;;;;;;;;;;;;;;28.50;52.17;101213.59;5142292;27;19926;-67
2023/06/18 07:42:15;;;;;;;;;;;;;;;28.83;51.84;101190.56;5144226;27;19916;-67
2023/06/18 07:44:40;;;;;;;;;;;;;;;29.19;50.12;101209.81;5136641;28;19973;-68
2023/06/18 07:47:06;;;;;;;;;;;;;;;28.80;50.81;101205.78;5143684;27;19915;-66
2023/06/18 07:49:32;;;;;;;;;;;;;;;29.26;49.71;101200.28;5134432;27;19923;-66
2023/06/18 07:51:57;;;;;;;;;;;;;;;29.09;49.84;101201.78;5135087;28;19924;-66
2023/06/18 07:54:23;;;;;;;;;;;;;;;29.25;49.54;101193.16;5133871;28;19989;-67
2023/06/18 07:56:48;;;;;;;;;;;;;;;29.53;49.13;101193.81;5133084;28;19919;-67
2023/06/18 07:59:14;;;;;;;;;;;;;;;29.73;46.84;101197.13;5139525;28;19941;-67
2023/06/18 08:01:39;;;;;;;;;;;;;;;29.90;46.86;101202.72;5140130;28;20096;-66
2023/06/18 08:04:05;;;;;;;;;;;;;;;29.69;46.46;101198.91;5139991;28;19923;-66
2023/06/18 08:06:30;;;;;;;;;;;;;;;30.03;46.68;101192.72;5142119;28;19983;-67
2023/06/18 08:08:55;;;;;;;;;;;;;;;30.35;46.25;101194.59;5141635;28;19919;-66
2023/06/18 08:11:21;;;;;;;;;;;;;;;30.33;46.16;101194.91;5143829;28;19930;-66
2023/06/18 08:13:47;;;;;;;;;;;;;;;30.72;44.98;101195.13;5140948;27;19954;-66
2023/06/18 08:16:12;;;;;;;;;;;;;;;30.87;44.43;101194.66;5143346;27;19907;-67
2023/06/18 08:18:38;;;;;;;;;;;;;;;31.14;43.51;101189.91;5146685;27;19923;-66
2023/06/18 08:21:03;;;;;;;;;;;;;;;31.21;43.76;101191.38;5143090;27;19937;-67
2023/06/18 08:23:29;;;;;;;;;;;;;;;31.15;43.51;101190.72;5145578;27;19920;-66
2023/06/18 08:25:55;;;;;;;;;;;;;;;31.10;43.35;101201.91;5144616;27;19951;-68
2023/06/18 08:28:20;;;;;;;;;;;;;;;31.59;42.48;101193.38;5144371;27;19953;-66
2023/06/18 08:30:45;;;;;;;;;;;;;;;31.66;41.73;101190.09;5139954;27;19924;-67
2023/06/18 08:33:10;;;;;;;;;;;;;;;31.63;42.00;101188.00;5143610;27;19937;-66
2023/06/18 08:35:39;;;;;;;;;;;;;;;32.12;40.70;101193.97;5143532;27;19916;-66
2023/06/18 08:38:06;;;;;;;;;;;;;;;31.75;41.29;101196.38;5141284;27;19979;-67
2023/06/18 08:40:35;;;;;;;;;;;;;;;31.40;42.04;101194.56;5142273;27;19916;-67
2023/06/18 08:43:00;;;;;;;;;;;;;;;31.79;40.33;101191.06;5142743;27;19915;-67
2023/06/18 08:45:26;;;;;;;;;;;;;;;30.85;42.38;101190.56;5140524;27;19938;-68
2023/06/18 08:47:55;;;;;;;;;;;;;;;31.53;41.05;101186.41;5140749;27;19926;-67
2023/06/18 08:50:20;;;;;;;;;;;;;;;31.69;39.55;101193.00;5139370;27;19927;-68
2023/06/18 08:52:48;;;;;;;;;;;;;;;31.66;40.37;101190.91;5143786;27;19975;-66
2023/06/18 08:55:14;;;;;;;;;;;;;;;31.92;39.45;101191.97;5141427;27;19923;-67
2023/06/18 08:58:01;;;;;;;;;;;;;;;32.08;39.24;101193.00;5143468;27;19937;-67
2023/06/18 09:00:27;;;;;;;;;;;;;;;31.89;39.71;101188.72;5142077;27;19920;-68
2023/06/18 09:02:53;;;;;;;;;;;;;;;32.15;39.28;101187.75;5141450;27;19928;-68
2023/06/18 09:05:18;;;;;;;;;;;;;;;32.27;38.80;101180.66;5141264;27;19928;-67
2023/06/18 09:07:46;;;;;;;;;;;;;;;32.40;38.72;101184.34;5143694;27;19934;-69
2023/06/18 09:10:12;;;;;;;;;;;;;;;32.84;38.29;101182.03;5141687;27;19916;-69
2023/06/18 09:12:37;;;;;;;;;;;;;;;32.53;38.26;101183.28;5142659;27;19934;-69
2023/06/18 09:15:03;;;;;;;;;;;;;;;32.79;38.08;101185.00;5145125;27;19943;-68
2023/06/18 09:17:28;;;;;;;;;;;;;;;32.89;37.99;101178.28;5143060;27;19915;-69
2023/06/18 09:19:54;;;;;;;;;;;;;;;33.13;37.72;101176.72;5144233;27;19916;-68
2023/06/18 09:22:20;;;;;;;;;;;;;;;33.31;37.15;101182.88;5138505;27;19915;-68
2023/06/18 09:24:58;;;;;;;;;;;;;;;32.87;38.73;101186.09;5139180;27;19920;-68
2023/06/18 09:27:31;;;;;;;;;;;;;;;32.57;39.40;101181.44;5134283;27;19940;-69
2023/06/18 09:29:56;;;;;;;;;;;;;;;32.57;39.20;101178.69;5133359;28;19935;-71
2023/06/18 09:32:22;;;;;;;;;;;;;;;32.46;39.15;101183.81;5135317;28;19922;-68
2023/06/18 09:34:47;;;;;;;;;;;;;;;32.47;39.08;101174.38;5135501;27;19975;-68
2023/06/18 09:37:13;;;;;;;;;;;;;;;32.28;40.27;101177.56;5137695;27;19930;-68
2023/06/18 09:39:40;;;;;;;;;;;;;;;32.03;39.85;101182.94;5135873;27;19916;-68
2023/06/18 09:42:07;;;;;;;;;;;;;;;31.57;40.47;101176.31;5135659;28;19915;-69
2023/06/18 09:44:33;;;;;;;;;;;;;;;31.52;40.88;101169.00;5136073;28;19981;-69
2023/06/18 09:46:59;;;;;;;;;;;;;;;31.79;40.57;101175.25;5138377;27;19922;-69
2023/06/18 09:49:26;;;;;;;;;;;;;;;31.63;40.83;101168.66;5134385;28;19916;-69
2023/06/18 09:51:52;;;;;;;;;;;;;;;31.27;41.44;101177.06;5135408;28;19915;-68
2023/06/18 09:54:19;;;;;;;;;;;;;;;31.53;41.32;101178.13;5136909;27;19916;-68
2023/06/18 09:57:02;;;;;;;;;;;;;;;31.60;41.87;101179.22;5139973;27;19920;-69
2023/06/18 09:59:28;;;;;;;;;;;;;;;31.21;42.79;101167.34;5140137;27;19922;-68
2023/06/18 10:01:55;;;;;;;;;;;;;;;31.80;41.40;101176.88;5141617;27;19916;-67
2023/06/18 10:04:21;;;;;;;;;;;;;;;31.94;42.23;101178.59;5139377;27;19923;-67
2023/06/18 10:06:53;;;;;;;;;;;;;;;32.02;42.02;101183.25;5139216;27;19919;-67
2023/06/18 10:09:19;;;;;;;;;;;;;;;31.80;42.49;101179.63;5142233;27;19975;-67
2023/06/18 10:11:45;;;;;;;;;;;;;;;31.99;43.07;101181.19;5141386;27;19920;-67
2023/06/18 10:14:13;;;;;;;;;;;;;;;31.39;42.00;101181.09;5138737;27;19920;-65
2023/06/18 10:16:45;;;;;;;;;;;;;;;31.67;42.28;101181.47;5144719;27;19912;-67
2023/06/18 10:19:18;;;;;;;;;;;;;;;31.76;41.73;101181.44;5140006;27;19934;-67
2023/06/18 10:21:46;;;;;;;;;;;;;;;31.32;43.59;101178.84;5140862;27;19916;-67
2023/06/18 10:24:15;;;;;;;;;;;;;;;31.14;43.67;101178.84;5138580;27;19923;-67
2023/06/18 10:26:44;;;;;;;;;;;;;;;31.13;43.74;101177.22;5137610;27;19970;-69
2023/06/18 10:29:11;;;;;;;;;;;;;;;30.96;44.31;101166.22;5140880;27;19916;-69
2023/06/18 10:31:37;;;;;;;;;;;;;;;31.36;43.80;101167.91;5138339;27;19916;-69
2023/06/18 10:34:02;;;;;;;;;;;;;;;31.54;43.70;101161.19;5141515;27;19944;-69
2023/06/18 10:36:28;;;;;;;;;;;;;;;31.84;43.71;101157.69;5143575;27;19918;-68
2023/06/18 10:38:55;;;;;;;;;;;;;;;32.16;43.32;101156.19;5137214;27;19916;-68
2023/06/18 10:41:21;;;;;;;;;;;;;;;31.87;43.83;101159.78;5139592;27;19920;-68
2023/06/18 10:43:51;;;;;;;;;;;;;;;31.68;44.00;101155.44;5139960;27;19919;-68
2023/06/18 10:46:16;;;;;;;;;;;;;;;31.64;44.32;101156.47;5145771;27;19915;-68
2023/06/18 10:49:01;;;;;;;;;;;;;;;31.69;43.80;101165.34;5142023;27;19915;-68
2023/06/18 10:51:28;;;;;;;;;;;;;;;31.87;43.56;101157.84;5140113;27;19949;-67
2023/06/18 10:54:13;;;;;;;;;;;;;;;32.42;42.94;101152.44;5143017;27;19926;-68
2023/06/18 10:56:48;;;;;;;;;;;;;;;32.41;42.73;101150.00;5143702;27;19983;-66
2023/06/18 10:59:14;;;;;;;;;;;;;;;32.44;43.61;101146.56;5140117;27;19920;-68
2023/06/18 11:01:42;;;;;;;;;;;;;;;31.84;44.58;101155.75;5141277;27;19915;-68
2023/06/18 11:04:07;;;;;;;;;;;;;;;31.92;44.60;101145.75;5144434;27;19995;-69
2023/06/18 11:06:33;;;;;;;;;;;;;;;32.12;44.47;101151.66;5142465;27;19916;-68
2023/06/18 11:08:58;;;;;;;;;;;;;;;32.29;43.93;101146.00;5144872;27;19915;-69
2023/06/18 11:11:25;;;;;;;;;;;;;;;32.49;44.29;101142.78;5144063;27;19950;-68
2023/06/18 11:13:53;;;;;;;;;;;;;;;31.97;45.50;101139.22;5143369;27;19983;-68
2023/06/18 11:16:21;;;;;;;;;;;;;;;31.98;44.91;101135.31;5140669;27;21378;-68
2023/06/18 11:18:47;;;;;;;;;;;;;;;32.04;44.40;101128.44;5142633;27;19922;-68
2023/06/18 11:21:16;;;;;;;;;;;;;;;31.70;45.43;101124.72;5141375;27;19915;-68
2023/06/18 11:23:42;;;;;;;;;;;;;;;31.66;44.54;101129.28;5140399;27;19920;-68
2023/06/18 11:26:18;;;;;;;;;;;;;;;32.07;43.84;101124.19;5140886;27;19915;-68
2023/06/18 11:28:45;;;;;;;;;;;;;;;32.11;43.96;101122.38;5139468;27;19944;-68
2023/06/18 11:31:11;;;;;;;;;;;;;;;32.36;43.78;101117.81;5143288;27;19922;-68
2023/06/18 11:33:36;;;;;;;;;;;;;;;32.41;43.05;101117.59;5137245;27;19928;-68
2023/06/18 11:36:06;;;;;;;;;;;;;;;32.51;43.47;101107.25;5146322;27;19916;-68
2023/06/18 11:38:31;;;;;;;;;;;;;;;32.86;43.47;101106.94;5140598;27;19928;-69
2023/06/18 11:40:57;;;;;;;;;;;;;;;33.39;42.05;101098.84;5140421;27;19919;-69
2023/06/18 11:43:22;;;;;;;;;;;;;;;33.51;42.06;101103.63;5139491;27;19920;-69
2023/06/18 11:45:49;;;;;;;;;;;;;;;33.62;42.28;101106.72;5142169;27;19919;-68
2023/06/18 11:48:16;;;;;;;;;;;;;;;33.53;42.17;101104.06;5144104;27;19967;-68
2023/06/18 11:50:42;;;;;;;;;;;;;;;33.72;42.30;101108.22;5135970;28;19994;-69
2023/06/18 11:53:09;;;;;;;;;;;;;;;33.39;42.39;101111.88;5137671;28;19931;-69
2023/06/18 11:55:36;;;;;;;;;;;;;;;33.51;42.55;101108.34;5138536;28;19920;-68
2023/06/18 11:58:02;;;;;;;;;;;;;;;33.36;43.50;101096.78;5137084;28;19922;-69
2023/06/18 12:00:29;;;;;;;;;;;;;;;33.56;42.62;101083.97;5139346;28;19927;-69
2023/06/18 12:02:58;;;;;;;;;;;;;;;33.50;42.53;101090.91;5137170;28;19916;-67
2023/06/18 12:05:24;;;;;;;;;;;;;;;33.85;41.91;101087.63;5136468;28;19953;-69
2023/06/18 12:07:49;;;;;;;;;;;;;;;34.03;42.32;101088.19;5138594;28;19919;-68
2023/06/18 12:10:16;;;;;;;;;;;;;;;34.02;41.76;101089.38;5141002;28;19989;-69
2023/06/18 12:12:58;;;;;;;;;;;;;;;34.18;41.40;101086.66;5138867;28;19995;-68
2023/06/18 12:15:36;;;;;;;;;;;;;;;34.06;42.16;101094.22;5139160;28;19916;-69
2023/06/18 12:18:12;;;;;;;;;;;;;;;34.11;41.46;101093.97;5138720;28;19916;-71
2023/06/18 12:20:38;;;;;;;;;;;;;;;34.22;41.63;101097.03;5137075;28;19919;-68
2023/06/18 12:23:05;;;;;;;;;;;;;;;33.81;41.34;101100.56;5137049;28;19922;-69
2023/06/18 12:25:30;;;;;;;;;;;;;;;33.88;40.89;101089.69;5139232;27;19920;-68
2023/06/18 12:27:58;;;;;;;;;;;;;;;34.14;41.39;101091.28;5144464;28;19915;-68
2023/06/18 12:30:28;;;;;;;;;;;;;;;34.27;41.63;101083.72;5137127;28;19979;-68
2023/06/18 12:33:13;;;;;;;;;;;;;;;34.42;40.71;101089.66;5139857;28;19916;-68
2023/06/18 12:35:44;;;;;;;;;;;;;;;33.77;41.10;101091.34;5139846;28;19975;-68